createdAt,value
2023-03-27T00:02:53.468Z,98.40
2023-03-27T00:06:17.389Z,98.30
2023-03-27T00:09:39.765Z,98.30
2023-03-27T00:13:05.650Z,98.10
2023-03-27T00:16:28.132Z,98.20
2023-03-27T00:19:50.780Z,97.30
2023-03-27T00:23:13.284Z,97.60
2023-03-27T00:26:35.590Z,97.00
2023-03-27T00:29:57.853Z,97.10
2023-03-27T00:33:20.524Z,97.10
2023-03-27T00:36:43.818Z,97.00
2023-03-27T00:40:17.850Z,96.90
2023-03-27T00:43:43.641Z,96.80
2023-03-27T00:47:09.337Z,96.80
2023-03-27T00:50:38.421Z,96.60
2023-03-27T00:54:01.233Z,96.70
2023-03-27T00:57:25.201Z,96.50
2023-03-27T01:00:51.253Z,96.30
2023-03-27T01:04:13.744Z,96.90
2023-03-27T01:07:37.951Z,96.30
2023-03-27T01:11:14.122Z,96.30
2023-03-27T01:15:05.753Z,96.20
2023-03-27T01:18:55.414Z,96.10
2023-03-27T01:22:36.451Z,96.00
2023-03-27T01:26:35.584Z,96.10
2023-03-27T01:30:13.695Z,95.60
2023-03-27T01:33:48.358Z,95.60
2023-03-27T01:37:29.148Z,95.50
2023-03-27T01:41:05.557Z,95.50
2023-03-27T01:44:48.477Z,95.50
2023-03-27T01:48:12.758Z,95.30
2023-03-27T01:51:39.514Z,95.20
2023-03-27T01:55:09.594Z,95.30
2023-03-27T01:58:40.936Z,95.30
2023-03-27T02:02:10.583Z,95.00
2023-03-27T02:05:41.482Z,95.10
2023-03-27T02:09:24.721Z,94.90
2023-03-27T02:12:56.877Z,95.00
2023-03-27T02:16:24.637Z,94.60
2023-03-27T02:19:59.649Z,94.50
2023-03-27T02:23:23.110Z,94.40
2023-03-27T02:26:49.344Z,94.40
2023-03-27T02:30:17.864Z,94.20
2023-03-27T02:33:46.702Z,94.10
2023-03-27T02:37:09.348Z,94.00
2023-03-27T02:41:19.280Z,94.00
2023-03-27T02:44:51.670Z,94.00
2023-03-27T02:48:35.603Z,93.70
2023-03-27T02:52:03.519Z,93.70
2023-03-27T02:55:37.409Z,93.60
2023-03-27T02:59:05.578Z,93.60
2023-03-27T03:02:34.448Z,93.50
2023-03-27T03:05:58.542Z,93.40
2023-03-27T03:09:21.212Z,93.30
2023-03-27T03:12:43.547Z,93.30
2023-03-27T03:16:07.532Z,93.30
2023-03-27T03:19:29.881Z,93.10
2023-03-27T03:22:52.583Z,93.00
2023-03-27T03:26:16.822Z,93.00
2023-03-27T03:29:44.310Z,93.00
2023-03-27T03:33:16.875Z,92.90
2023-03-27T03:36:41.909Z,92.90
2023-03-27T03:40:11.954Z,92.80
2023-03-27T03:43:37.897Z,92.70
2023-03-27T03:47:00.571Z,92.70
2023-03-27T03:50:22.830Z,92.60
2023-03-27T03:53:45.161Z,92.60
2023-03-27T03:57:08.871Z,92.50
2023-03-27T04:00:34.574Z,92.50
2023-03-27T04:03:56.960Z,92.40
2023-03-27T04:07:21.850Z,92.40
2023-03-27T04:10:45.219Z,92.40
2023-03-27T04:14:27.989Z,92.40
2023-03-27T04:17:52.385Z,92.40
2023-03-27T04:21:15.012Z,92.30
2023-03-27T04:24:37.724Z,92.50
2023-03-27T04:28:02.249Z,92.40
2023-03-27T04:31:30.340Z,92.30
2023-03-27T04:35:15.607Z,92.40
2023-03-27T04:38:45.626Z,92.30
2023-03-27T04:42:10.681Z,92.10
2023-03-27T04:45:33.897Z,92.10
2023-03-27T04:48:56.765Z,92.10
2023-03-27T04:52:42.181Z,92.00
2023-03-27T04:56:06.391Z,91.90
2023-03-27T04:59:33.310Z,91.90
2023-03-27T05:03:14.289Z,91.90
2023-03-27T05:06:50.914Z,91.80
2023-03-27T05:10:13.561Z,91.70
2023-03-27T05:13:35.918Z,91.70
2023-03-27T05:17:00.851Z,91.70
2023-03-27T05:20:23.817Z,91.70
2023-03-27T05:23:46.330Z,91.70
2023-03-27T05:27:08.950Z,91.70
2023-03-27T05:30:35.931Z,91.70
2023-03-27T05:34:20.847Z,91.50
2023-03-27T05:37:47.744Z,91.20
2023-03-27T05:41:20.871Z,91.20
2023-03-27T05:44:45.216Z,90.90
2023-03-27T05:48:07.808Z,90.80
2023-03-27T05:51:35.952Z,91.00
2023-03-27T05:54:58.261Z,90.80
2023-03-27T05:58:21.074Z,90.80
2023-03-27T06:01:43.586Z,90.60
2023-03-27T06:05:10.824Z,90.50
2023-03-27T06:08:36.595Z,90.60
2023-03-27T06:12:02.933Z,90.30
2023-03-27T06:15:30.158Z,90.80
2023-03-27T06:19:04.496Z,90.30
2023-03-27T06:22:27.666Z,90.40
2023-03-27T06:25:51.295Z,90.50
2023-03-27T06:29:18.244Z,91.80
2023-03-27T06:32:45.509Z,92.00
2023-03-27T06:36:10.115Z,92.20
2023-03-27T06:39:35.830Z,91.30
2023-03-27T06:42:59.523Z,91.30
2023-03-27T06:46:45.537Z,90.90
2023-03-27T06:50:28.468Z,90.10
2023-03-27T06:53:54.052Z,89.30
2023-03-27T06:57:17.336Z,87.80
2023-03-27T07:00:51.271Z,88.30
2023-03-27T07:04:13.793Z,90.10
2023-03-27T07:07:59.405Z,89.40
2023-03-27T07:11:25.796Z,90.30
2023-03-27T07:14:54.438Z,89.20
2023-03-27T07:18:22.655Z,90.30
2023-03-27T07:21:47.356Z,90.30
2023-03-27T07:25:12.689Z,89.80
2023-03-27T07:28:38.556Z,88.90
2023-03-27T07:32:08.126Z,88.90
2023-03-27T07:35:41.243Z,89.20
2023-03-27T07:39:38.996Z,89.80
2023-03-27T07:43:01.450Z,90.00
2023-03-27T07:46:25.853Z,89.50
2023-03-27T07:49:49.539Z,89.70
2023-03-27T07:53:33.554Z,90.00
2023-03-27T07:57:17.434Z,89.40
2023-03-27T08:00:52.999Z,90.00
2023-03-27T08:04:15.470Z,89.70
2023-03-27T08:07:45.501Z,89.70
2023-03-27T08:11:29.618Z,89.50
2023-03-27T08:14:54.589Z,88.60
2023-03-27T08:18:20.225Z,89.10
2023-03-27T08:21:42.720Z,89.50
2023-03-27T08:25:07.977Z,89.30
2023-03-27T08:28:33.331Z,89.50
2023-03-27T08:31:57.027Z,89.00
2023-03-27T08:35:19.763Z,89.60
2023-03-27T08:38:43.313Z,89.80
2023-03-27T08:42:20.555Z,90.40
2023-03-27T08:45:53.620Z,90.30
2023-03-27T08:49:21.403Z,90.60
2023-03-27T08:53:07.192Z,90.80
2023-03-27T08:56:31.583Z,89.10
2023-03-27T09:00:00.003Z,90.00
2023-03-27T09:03:47.536Z,90.90
2023-03-27T09:07:39.760Z,90.70
2023-03-27T09:11:42.625Z,91.40
2023-03-27T09:15:21.893Z,90.80
2023-03-27T09:18:57.592Z,91.30
2023-03-27T09:22:40.690Z,91.20
2023-03-27T09:26:30.630Z,91.10
2023-03-27T09:30:18.479Z,91.00
2023-03-27T09:33:52.572Z,90.80
2023-03-27T09:37:17.431Z,90.40
2023-03-27T09:40:53.799Z,90.00
2023-03-27T09:44:36.414Z,88.90
2023-03-27T09:48:02.948Z,88.50
2023-03-27T09:51:51.622Z,88.70
2023-03-27T09:55:34.446Z,89.60
2023-03-27T09:59:30.773Z,89.00
2023-03-27T10:03:08.170Z,88.70
2023-03-27T10:06:43.122Z,88.50
2023-03-27T10:10:14.060Z,87.90
2023-03-27T10:13:58.674Z,87.00
2023-03-27T10:17:41.571Z,87.60
2023-03-27T10:21:11.420Z,86.90
2023-03-27T10:24:36.605Z,85.60
2023-03-27T10:28:39.085Z,86.40
2023-03-27T10:32:10.184Z,81.00
2023-03-27T10:35:44.201Z,85.60
2023-03-27T10:39:14.659Z,84.50
2023-03-27T10:42:51.717Z,84.90
2023-03-27T10:46:31.025Z,84.40
2023-03-27T10:50:15.943Z,84.30
2023-03-27T10:53:56.201Z,83.50
2023-03-27T10:57:30.838Z,83.00
2023-03-27T11:01:11.411Z,79.50
2023-03-27T11:04:56.185Z,75.50
2023-03-27T11:08:34.622Z,74.60
2023-03-27T11:12:10.347Z,74.20
2023-03-27T11:15:50.906Z,76.40
2023-03-27T11:19:53.955Z,67.30
2023-03-27T11:24:00.361Z,66.50
2023-03-27T11:27:45.593Z,65.80
2023-03-27T11:31:24.129Z,62.60
2023-03-27T11:34:58.668Z,61.60
2023-03-27T11:38:46.696Z,67.60
2023-03-27T11:42:25.379Z,75.80
2023-03-27T11:45:50.389Z,77.00
2023-03-27T11:49:31.441Z,77.30
2023-03-27T11:53:03.178Z,77.70
2023-03-27T11:56:54.528Z,77.40
2023-03-27T12:01:12.846Z,78.60
2023-03-27T12:04:50.338Z,79.40
2023-03-27T12:09:28.944Z,79.60
2023-03-27T12:13:41.630Z,79.40
2023-03-27T12:17:28.660Z,80.20
2023-03-27T12:21:19.644Z,79.20
2023-03-27T12:25:06.190Z,79.70
2023-03-27T12:28:57.102Z,79.60
2023-03-27T12:33:10.889Z,79.10
2023-03-27T12:36:39.931Z,79.30
2023-03-27T12:40:24.716Z,79.10
2023-03-27T12:43:48.496Z,79.10
2023-03-27T12:47:26.228Z,79.10
2023-03-27T12:51:00.248Z,79.00
2023-03-27T12:54:27.282Z,79.50
2023-03-27T12:57:52.546Z,78.80
2023-03-27T13:01:52.425Z,80.70
2023-03-27T13:05:58.225Z,82.10
2023-03-27T13:09:48.539Z,82.10
2023-03-27T13:13:17.119Z,81.50
2023-03-27T13:16:48.449Z,81.40
2023-03-27T13:20:16.560Z,81.30
2023-03-27T13:23:58.676Z,81.10
2023-03-27T13:27:35.913Z,80.80
2023-03-27T13:31:00.021Z,81.00
2023-03-27T13:35:05.253Z,81.60
2023-03-27T13:38:55.031Z,81.60
2023-03-27T13:42:40.000Z,83.20
2023-03-27T13:46:06.129Z,83.50
2023-03-27T13:49:46.018Z,83.50
2023-03-27T13:53:39.680Z,82.00
2023-03-27T13:57:42.245Z,82.80
2023-03-27T14:01:17.225Z,83.20
2023-03-27T14:05:05.070Z,84.10
2023-03-27T14:09:06.117Z,82.90
2023-03-27T14:13:05.945Z,82.90
2023-03-27T14:16:44.888Z,83.30
2023-03-27T14:20:27.421Z,83.20
2023-03-27T14:24:04.504Z,83.40
2023-03-27T14:27:45.610Z,82.80
2023-03-27T14:31:11.291Z,82.60
2023-03-27T14:34:54.671Z,82.50
2023-03-27T14:38:34.330Z,82.70
2023-03-27T14:41:59.595Z,82.40
2023-03-27T14:45:27.469Z,82.60
2023-03-27T14:48:54.681Z,82.60
2023-03-27T14:52:35.005Z,83.10
2023-03-27T14:56:41.561Z,82.90
2023-03-27T15:00:24.499Z,83.20
2023-03-27T15:03:47.666Z,83.50
2023-03-27T15:07:28.449Z,83.50
2023-03-27T15:11:00.458Z,84.20
2023-03-27T15:14:33.844Z,84.10
2023-03-27T15:17:59.829Z,84.10
2023-03-27T15:21:39.123Z,84.10
2023-03-27T15:25:21.178Z,84.10
2023-03-27T15:29:01.672Z,84.10
2023-03-27T15:32:29.074Z,83.90
2023-03-27T15:35:54.434Z,83.70
2023-03-27T15:39:22.088Z,83.70
2023-03-27T15:42:48.509Z,83.20
2023-03-27T15:46:17.904Z,82.80
2023-03-27T15:49:42.864Z,82.90
2023-03-27T15:53:05.227Z,82.80
2023-03-27T15:56:43.845Z,83.40
2023-03-27T16:00:13.158Z,83.40
2023-03-27T16:03:35.916Z,83.40
2023-03-27T16:07:14.163Z,83.60
2023-03-27T16:10:36.356Z,83.20
2023-03-27T16:13:59.141Z,83.20
2023-03-27T16:17:34.224Z,82.70
2023-03-27T16:21:08.441Z,82.90
2023-03-27T16:24:30.722Z,83.10
2023-03-27T16:27:54.930Z,83.10
2023-03-27T16:31:19.263Z,83.20
2023-03-27T16:34:41.615Z,83.10
2023-03-27T16:38:03.917Z,82.80
2023-03-27T16:41:26.244Z,83.30
2023-03-27T16:44:48.808Z,83.60
2023-03-27T16:48:11.546Z,83.80
2023-03-27T16:51:33.910Z,83.70
2023-03-27T16:54:56.265Z,83.70
2023-03-27T16:58:18.503Z,83.70
2023-03-27T17:01:40.866Z,83.90
2023-03-27T17:05:08.746Z,83.90
2023-03-27T17:08:31.515Z,83.80
2023-03-27T17:11:53.886Z,84.00
2023-03-27T17:15:16.781Z,84.20
2023-03-27T17:18:39.200Z,84.60
2023-03-27T17:22:01.457Z,85.10
2023-03-27T17:25:23.698Z,84.80
2023-03-27T17:28:48.357Z,84.60
2023-03-27T17:32:10.621Z,84.80
2023-03-27T17:35:32.989Z,83.90
2023-03-27T17:38:55.471Z,84.70
2023-03-27T17:42:18.085Z,83.40
2023-03-27T17:45:42.089Z,74.10
2023-03-27T17:49:04.865Z,76.40
2023-03-27T17:52:27.597Z,79.30
2023-03-27T17:55:51.487Z,79.70
2023-03-27T17:59:13.772Z,81.60
2023-03-27T18:02:36.145Z,81.90
2023-03-27T18:06:03.345Z,83.60
2023-03-27T18:09:26.174Z,82.80
2023-03-27T18:12:48.557Z,83.40
2023-03-27T18:16:11.178Z,84.20
2023-03-27T18:19:33.418Z,84.60
2023-03-27T18:22:55.826Z,84.80
2023-03-27T18:26:18.110Z,83.90
2023-03-27T18:29:40.450Z,83.00
2023-03-27T18:33:04.688Z,82.60
2023-03-27T18:36:28.054Z,83.90
2023-03-27T18:39:50.290Z,82.90
2023-03-27T18:43:13.730Z,83.20
2023-03-27T18:46:36.205Z,84.00
2023-03-27T18:49:58.841Z,83.90
2023-03-27T18:53:21.225Z,84.20
2023-03-27T18:56:43.493Z,84.70
2023-03-27T19:00:17.310Z,85.10
2023-03-27T19:03:40.514Z,84.40
2023-03-27T19:07:02.781Z,85.60
2023-03-27T19:10:25.746Z,84.70
2023-03-27T19:14:08.338Z,86.20
2023-03-27T19:17:48.543Z,87.60
2023-03-27T19:21:25.559Z,85.80
2023-03-27T19:24:57.838Z,86.50
2023-03-27T19:28:20.495Z,85.70
2023-03-27T19:31:43.284Z,86.70
2023-03-27T19:35:06.203Z,85.70
2023-03-27T19:38:28.837Z,85.70
2023-03-27T19:41:51.121Z,86.50
2023-03-27T19:45:13.491Z,85.90
2023-03-27T19:48:36.432Z,85.60
2023-03-27T19:52:01.545Z,87.00
2023-03-27T19:55:25.349Z,86.50
2023-03-27T19:58:47.718Z,86.80
2023-03-27T20:02:12.536Z,86.90
2023-03-27T20:05:38.071Z,86.70
2023-03-27T20:09:02.173Z,86.50
2023-03-27T20:12:25.031Z,87.00
2023-03-27T20:15:52.637Z,85.80
2023-03-27T20:19:16.790Z,85.50
2023-03-27T20:22:54.390Z,84.30
2023-03-27T20:26:21.416Z,84.10
2023-03-27T20:29:49.455Z,84.60
2023-03-27T20:33:11.773Z,85.30
2023-03-27T20:36:35.128Z,85.10
2023-03-27T20:40:11.711Z,85.80
2023-03-27T20:43:38.505Z,85.30
2023-03-27T20:47:03.518Z,85.10
2023-03-27T20:50:30.972Z,86.10
2023-03-27T20:53:58.089Z,85.40
2023-03-27T20:57:21.769Z,85.40
2023-03-27T21:00:45.232Z,85.60
2023-03-27T21:04:08.947Z,85.20
2023-03-27T21:07:38.072Z,85.50
2023-03-27T21:11:01.417Z,85.50
2023-03-27T21:14:24.079Z,85.40
2023-03-27T21:17:46.624Z,85.60
2023-03-27T21:21:08.968Z,83.80
2023-03-27T21:24:32.733Z,84.80
2023-03-27T21:27:56.397Z,84.60
2023-03-27T21:31:19.623Z,84.80
2023-03-27T21:34:41.866Z,82.70
2023-03-27T21:38:04.470Z,82.00
2023-03-27T21:41:27.619Z,79.60
2023-03-27T21:44:53.616Z,82.10
2023-03-27T21:48:17.808Z,81.80
2023-03-27T21:51:40.338Z,81.60
2023-03-27T21:55:03.595Z,81.70
2023-03-27T21:58:26.435Z,81.30
2023-03-27T22:01:48.983Z,81.00
2023-03-27T22:05:11.271Z,80.70
2023-03-27T22:08:33.836Z,80.60
2023-03-27T22:11:56.858Z,80.30
2023-03-27T22:15:19.990Z,80.50
2023-03-27T22:18:43.156Z,80.30
2023-03-27T22:22:05.633Z,80.30
2023-03-27T22:25:27.994Z,80.10
2023-03-27T22:28:52.525Z,80.10
2023-03-27T22:32:14.875Z,79.90
2023-03-27T22:35:37.128Z,79.80
2023-03-27T22:38:59.592Z,79.80
2023-03-27T22:42:21.852Z,79.80
2023-03-27T22:45:44.126Z,79.80
2023-03-27T22:49:06.484Z,79.80
2023-03-27T22:52:28.675Z,79.80
2023-03-27T22:55:55.991Z,79.80
2023-03-27T22:59:18.198Z,79.70
2023-03-27T23:02:40.754Z,79.60
2023-03-27T23:06:03.483Z,79.80
2023-03-27T23:09:26.037Z,79.80
2023-03-27T23:12:48.225Z,80.60
2023-03-27T23:16:11.140Z,79.80
2023-03-27T23:19:33.389Z,79.80
2023-03-27T23:22:55.881Z,79.80
2023-03-27T23:26:18.270Z,79.80
2023-03-27T23:29:40.647Z,79.70
2023-03-27T23:33:02.978Z,79.80
2023-03-27T23:36:25.579Z,79.70
2023-03-27T23:39:48.326Z,79.70
2023-03-27T23:43:10.555Z,79.70
2023-03-27T23:46:33.760Z,79.60
2023-03-27T23:49:56.081Z,79.60
2023-03-27T23:53:19.366Z,79.60
2023-03-27T23:56:41.636Z,79.50
